createdAt,value
2023-03-11T00:03:32.863Z,41.93
2023-03-11T00:08:35.071Z,41.99
2023-03-11T00:13:37.370Z,41.65
2023-03-11T00:18:39.267Z,41.85
2023-03-11T00:23:41.179Z,41.88
2023-03-11T00:28:43.203Z,41.86
2023-03-11T00:33:45.075Z,41.66
2023-03-11T00:38:47.267Z,41.83
2023-03-11T00:43:50.266Z,41.97
2023-03-11T00:48:52.571Z,41.77
2023-03-11T00:53:54.378Z,41.48
2023-03-11T00:58:56.465Z,41.68
2023-03-11T01:03:58.563Z,41.52
2023-03-11T01:09:00.602Z,41.76
2023-03-11T01:14:02.527Z,41.64
2023-03-11T01:19:04.867Z,41.77
2023-03-11T01:24:06.725Z,41.78
2023-03-11T01:29:08.797Z,41.60
2023-03-11T01:34:10.851Z,41.69
2023-03-11T01:39:12.738Z,41.42
2023-03-11T01:44:14.586Z,41.64
2023-03-11T01:49:16.531Z,41.54
2023-03-11T01:54:28.789Z,41.68
2023-03-11T01:59:33.811Z,41.35
2023-03-11T02:04:37.026Z,41.37
2023-03-11T02:09:39.129Z,41.64
2023-03-11T02:14:45.952Z,41.62
2023-03-11T02:20:20.084Z,41.39
2023-03-11T02:25:37.553Z,41.38
2023-03-11T02:30:43.157Z,41.35
2023-03-11T02:35:45.385Z,41.25
2023-03-11T02:40:48.654Z,41.34
2023-03-11T02:45:50.881Z,41.64
2023-03-11T02:50:53.622Z,41.17
2023-03-11T02:55:55.579Z,41.43
2023-03-11T03:00:57.456Z,41.40
2023-03-11T03:05:59.483Z,41.54
2023-03-11T03:11:01.642Z,41.38
2023-03-11T03:16:03.967Z,41.58
2023-03-11T03:21:06.126Z,41.32
2023-03-11T03:26:08.080Z,41.24
2023-03-11T03:31:10.763Z,41.46
2023-03-11T03:36:14.818Z,41.18
2023-03-11T03:41:16.994Z,41.43
2023-03-11T03:46:19.076Z,41.45
2023-03-11T03:51:20.912Z,41.28
2023-03-11T03:56:22.951Z,41.27
2023-03-11T04:01:24.747Z,41.50
2023-03-11T04:06:27.583Z,41.36
2023-03-11T04:11:30.052Z,41.27
2023-03-11T04:16:32.443Z,41.47
2023-03-11T04:21:34.386Z,41.46
2023-03-11T04:26:36.611Z,41.39
2023-03-11T04:31:38.700Z,41.53
2023-03-11T04:36:41.044Z,41.47
2023-03-11T04:41:43.183Z,41.39
2023-03-11T04:46:45.200Z,41.56
2023-03-11T04:51:47.061Z,41.39
2023-03-11T04:56:48.902Z,41.22
2023-03-11T05:01:50.812Z,41.54
2023-03-11T05:06:52.791Z,41.27
2023-03-11T05:11:54.768Z,41.27
2023-03-11T05:16:56.823Z,41.54
2023-03-11T05:21:59.377Z,41.36
2023-03-11T05:27:02.367Z,41.09
2023-03-11T05:32:04.413Z,41.12
2023-03-11T05:37:06.797Z,41.33
2023-03-11T05:42:08.920Z,41.09
2023-03-11T05:47:11.307Z,41.46
2023-03-11T05:52:13.318Z,41.00
2023-03-11T05:57:15.252Z,41.11
2023-03-11T06:02:17.518Z,41.30
2023-03-11T06:07:19.208Z,41.51
2023-03-11T06:12:21.340Z,41.38
2023-03-11T06:17:23.642Z,41.43
2023-03-11T06:22:25.553Z,41.09
2023-03-11T06:27:27.566Z,41.55
2023-03-11T06:32:30.276Z,41.40
2023-03-11T06:37:32.307Z,41.52
2023-03-11T06:42:34.610Z,41.15
2023-03-11T06:47:36.693Z,41.21
2023-03-11T06:52:38.602Z,41.20
2023-03-11T06:57:40.524Z,44.37
2023-03-11T07:02:42.515Z,43.93
2023-03-11T07:07:44.596Z,44.13
2023-03-11T07:12:46.411Z,43.90
2023-03-11T07:17:48.567Z,42.98
2023-03-11T07:22:50.568Z,42.81
2023-03-11T07:27:52.680Z,42.35
2023-03-11T07:32:54.542Z,41.56
2023-03-11T07:37:56.811Z,41.46
2023-03-11T07:42:58.770Z,40.91
2023-03-11T07:48:00.722Z,40.56
2023-03-11T07:53:02.601Z,40.13
2023-03-11T07:58:04.548Z,39.31
2023-03-11T08:03:06.275Z,38.78
2023-03-11T08:08:08.150Z,38.53
2023-03-11T08:13:09.939Z,38.22
2023-03-11T08:18:12.003Z,38.17
2023-03-11T08:23:14.205Z,38.08
2023-03-11T08:28:16.498Z,38.05
2023-03-11T08:33:18.575Z,38.12
2023-03-11T08:38:20.859Z,38.11
2023-03-11T08:43:23.048Z,37.84
2023-03-11T08:48:26.000Z,38.46
2023-03-11T08:53:27.841Z,37.93
2023-03-11T08:58:30.211Z,37.96
2023-03-11T09:03:33.980Z,38.30
2023-03-11T09:08:36.173Z,38.13
2023-03-11T09:13:41.373Z,38.32
2023-03-11T09:18:43.545Z,37.94
2023-03-11T09:23:45.619Z,38.10
2023-03-11T09:28:50.377Z,37.82
2023-03-11T09:33:53.182Z,37.65
2023-03-11T09:38:55.188Z,38.24
2023-03-11T09:44:18.301Z,37.60
2023-03-11T09:49:55.251Z,38.11
2023-03-11T09:54:58.105Z,37.76
2023-03-11T10:00:03.122Z,37.94
2023-03-11T10:05:14.221Z,38.05
2023-03-11T10:10:18.286Z,37.81
2023-03-11T10:15:26.010Z,38.17
2023-03-11T10:20:58.172Z,38.06
2023-03-11T10:26:42.764Z,37.91
2023-03-11T10:31:55.204Z,37.74
2023-03-11T10:37:00.101Z,37.42
2023-03-11T10:42:15.693Z,37.31
2023-03-11T10:47:19.873Z,37.11
2023-03-11T10:52:21.750Z,37.48
2023-03-11T10:57:33.094Z,37.13
2023-03-11T11:02:49.747Z,37.37
2023-03-11T11:08:02.797Z,37.70
2023-03-11T11:13:13.410Z,37.67
2023-03-11T11:18:35.879Z,37.90
2023-03-11T11:23:42.908Z,37.86
2023-03-11T11:28:44.946Z,38.03
2023-03-11T11:33:57.161Z,38.44
2023-03-11T11:39:05.450Z,38.62
2023-03-11T11:44:07.807Z,38.38
2023-03-11T11:49:21.556Z,38.36
2023-03-11T11:54:36.513Z,38.70
2023-03-11T11:59:38.562Z,38.58
2023-03-11T12:04:58.562Z,39.00
2023-03-11T12:10:23.575Z,39.20
2023-03-11T12:15:39.161Z,39.58
2023-03-11T12:20:47.807Z,39.69
2023-03-11T12:26:06.245Z,39.51
2023-03-11T12:31:10.884Z,39.36
2023-03-11T12:36:29.202Z,39.15
2023-03-11T12:41:43.053Z,37.99
2023-03-11T12:46:54.179Z,37.64
2023-03-11T12:52:14.825Z,37.43
2023-03-11T12:57:16.795Z,37.82
2023-03-11T13:02:47.808Z,37.51
2023-03-11T13:08:12.228Z,37.53
2023-03-11T13:13:50.692Z,36.36
2023-03-11T13:18:52.774Z,36.58
2023-03-11T13:24:19.430Z,36.98
2023-03-11T13:29:56.017Z,37.36
2023-03-11T13:35:33.968Z,37.64
2023-03-11T13:40:41.834Z,37.38
2023-03-11T13:45:51.500Z,37.55
2023-03-11T13:51:01.517Z,37.82
2023-03-11T13:56:04.767Z,37.63
2023-03-11T14:01:06.901Z,39.56
2023-03-11T14:06:22.019Z,38.87
2023-03-11T14:11:29.505Z,38.59
2023-03-11T14:16:44.399Z,39.33
2023-03-11T14:21:50.353Z,38.91
2023-03-11T14:26:56.901Z,38.92
2023-03-11T14:31:58.972Z,39.24
2023-03-11T14:37:04.284Z,39.29
2023-03-11T14:42:21.928Z,39.62
2023-03-11T14:47:45.149Z,40.04
2023-03-11T14:53:09.335Z,39.80
2023-03-11T14:58:19.164Z,39.92
2023-03-11T15:03:27.021Z,40.25
2023-03-11T15:08:33.977Z,39.27
2023-03-11T15:13:36.786Z,40.66
2023-03-11T15:18:38.825Z,40.37
2023-03-11T15:23:49.824Z,39.87
2023-03-11T15:29:02.741Z,39.22
2023-03-11T15:34:10.424Z,38.87
2023-03-11T15:39:19.742Z,38.93
2023-03-11T15:44:27.283Z,39.05
2023-03-11T15:49:31.900Z,38.82
2023-03-11T15:54:34.097Z,38.64
2023-03-11T15:59:37.851Z,38.74
2023-03-11T16:04:39.937Z,38.95
2023-03-11T16:09:45.912Z,39.09
2023-03-11T16:14:49.203Z,38.92
2023-03-11T16:19:51.148Z,39.24
2023-03-11T16:24:54.083Z,39.05
2023-03-11T16:29:56.437Z,39.14
2023-03-11T16:34:58.304Z,38.81
2023-03-11T16:40:00.378Z,38.92
2023-03-11T16:45:04.094Z,39.21
2023-03-11T16:50:07.505Z,39.38
2023-03-11T16:55:09.703Z,39.13
2023-03-11T17:00:13.775Z,41.55
2023-03-11T17:05:16.032Z,41.03
2023-03-11T17:10:18.320Z,39.74
2023-03-11T17:15:20.479Z,38.42
2023-03-11T17:20:22.372Z,39.32
2023-03-11T17:25:24.290Z,38.59
2023-03-11T17:30:36.349Z,38.77
2023-03-11T17:35:39.351Z,38.66
2023-03-11T17:40:44.486Z,38.92
2023-03-11T17:45:46.531Z,38.55
2023-03-11T17:50:48.716Z,38.68
2023-03-11T17:55:50.957Z,38.71
2023-03-11T18:00:53.228Z,41.26
2023-03-11T18:05:57.773Z,40.71
2023-03-11T18:11:03.269Z,40.25
2023-03-11T18:16:11.899Z,39.48
2023-03-11T18:21:25.409Z,39.25
2023-03-11T18:26:29.496Z,39.28
2023-03-11T18:31:32.005Z,39.22
2023-03-11T18:36:37.022Z,39.17
2023-03-11T18:41:39.240Z,40.28
2023-03-11T18:46:42.662Z,40.04
2023-03-11T18:51:44.514Z,40.98
2023-03-11T18:56:46.522Z,40.68
2023-03-11T19:01:51.141Z,40.77
2023-03-11T19:06:53.168Z,40.25
2023-03-11T19:11:55.075Z,39.46
2023-03-11T19:16:57.047Z,39.24
2023-03-11T19:21:58.849Z,39.39
2023-03-11T19:27:00.840Z,38.86
2023-03-11T19:32:12.186Z,38.85
2023-03-11T19:37:14.148Z,39.08
2023-03-11T19:42:15.989Z,38.89
2023-03-11T19:47:18.029Z,38.82
2023-03-11T19:52:20.263Z,38.45
2023-03-11T19:57:22.367Z,39.50
2023-03-11T20:02:24.533Z,38.96
2023-03-11T20:07:26.685Z,38.92
2023-03-11T20:12:28.699Z,38.67
2023-03-11T20:17:30.618Z,38.54
2023-03-11T20:22:32.453Z,38.81
2023-03-11T20:27:34.252Z,40.64
2023-03-11T20:32:36.303Z,40.17
2023-03-11T20:37:38.199Z,40.94
2023-03-11T20:42:40.735Z,41.05
2023-03-11T20:47:44.192Z,41.43
2023-03-11T20:52:46.480Z,41.64
2023-03-11T20:57:48.317Z,41.57
2023-03-11T21:02:50.501Z,41.72
2023-03-11T21:07:52.684Z,41.32
2023-03-11T21:12:54.956Z,41.56
2023-03-11T21:17:56.844Z,41.83
2023-03-11T21:22:58.909Z,41.64
2023-03-11T21:28:00.874Z,41.99
2023-03-11T21:33:03.192Z,41.97
2023-03-11T21:38:05.131Z,41.90
2023-03-11T21:43:07.090Z,42.01
2023-03-11T21:48:09.927Z,41.65
2023-03-11T21:53:12.045Z,41.83
2023-03-11T21:58:14.933Z,41.88
2023-03-11T22:03:16.899Z,42.11
2023-03-11T22:08:18.867Z,42.05
2023-03-11T22:13:21.817Z,42.00
2023-03-11T22:18:23.746Z,41.89
2023-03-11T22:23:26.087Z,42.18
2023-03-11T22:28:28.998Z,41.37
2023-03-11T22:33:30.941Z,41.03
2023-03-11T22:38:34.400Z,40.67
2023-03-11T22:43:37.087Z,40.44
2023-03-11T22:48:38.979Z,39.87
2023-03-11T22:53:41.200Z,40.09
2023-03-11T22:58:43.460Z,40.03
2023-03-11T23:03:45.945Z,39.90
2023-03-11T23:08:48.638Z,39.82
2023-03-11T23:13:51.189Z,39.72
2023-03-11T23:18:55.348Z,39.54
2023-03-11T23:23:58.534Z,39.65
2023-03-11T23:29:01.787Z,39.69
2023-03-11T23:34:03.937Z,39.65
2023-03-11T23:39:05.984Z,39.53
2023-03-11T23:44:07.753Z,39.40
2023-03-11T23:49:09.932Z,39.48
2023-03-11T23:54:12.058Z,39.31
2023-03-11T23:59:13.919Z,39.47
